CPX231 Details

Departure: Phoenix Sky Harbor International Airport (KPHX)
Arrival: Chicago/Rockford International Airport (KRFD) at N/A
Route: BROAK1 MAXXO ACH J231 LBL J19 ICT J26 IRK J232 MZV PLL
Notes:


Current Weather Information
KPHX 191551Z VRB04KT 10SM FEW150 33/08 A2990 RMK AO2 SLP103 T03280078
KRFD 191554Z 05007KT 10SM SCT033 OVC048 24/19 A3005 RMK AO2 SLP170 T02440189